sensor_id;sensor_type;location;lat;lon;timestamp;P1;durP1;ratioP1;P2;durP2;ratioP2
33188;SDS011;52601;53.070;10.600;2022-11-20T00:01:46;7.63;;;4.97;;
33188;SDS011;52601;53.070;10.600;2022-11-20T00:04:31;8.30;;;5.10;;
33188;SDS011;52601;53.070;10.600;2022-11-20T00:07:17;6.25;;;4.85;;
33188;SDS011;52601;53.070;10.600;2022-11-20T00:10:02;7.70;;;5.07;;
33188;SDS011;52601;53.070;10.600;2022-11-20T00:12:48;6.75;;;5.18;;
33188;SDS011;52601;53.070;10.600;2022-11-20T00:15:34;7.63;;;4.97;;
33188;SDS011;52601;53.070;10.600;2022-11-20T00:18:19;7.03;;;5.22;;
33188;SDS011;52601;53.070;10.600;2022-11-20T00:21:05;6.47;;;4.73;;
33188;SDS011;52601;53.070;10.600;2022-11-20T00:23:53;6.57;;;5.22;;
33188;SDS011;52601;53.070;10.600;2022-11-20T00:26:40;7.77;;;5.20;;
33188;SDS011;52601;53.070;10.600;2022-11-20T00:29:25;7.43;;;5.05;;
33188;SDS011;52601;53.070;10.600;2022-11-20T00:32:11;10.50;;;4.90;;
33188;SDS011;52601;53.070;10.600;2022-11-20T00:34:56;7.38;;;5.30;;
33188;SDS011;52601;53.070;10.600;2022-11-20T00:37:42;6.85;;;4.82;;
33188;SDS011;52601;53.070;10.600;2022-11-20T00:40:27;9.15;;;5.88;;
33188;SDS011;52601;53.070;10.600;2022-11-20T00:43:13;10.02;;;5.57;;
33188;SDS011;52601;53.070;10.600;2022-11-20T00:48:49;6.78;;;5.40;;
33188;SDS011;52601;53.070;10.600;2022-11-20T00:51:35;9.80;;;5.22;;
33188;SDS011;52601;53.070;10.600;2022-11-20T00:54:20;6.97;;;5.22;;
33188;SDS011;52601;53.070;10.600;2022-11-20T00:57:05;9.52;;;6.10;;
33188;SDS011;52601;53.070;10.600;2022-11-20T00:59:51;6.70;;;4.97;;
33188;SDS011;52601;53.070;10.600;2022-11-20T01:02:36;7.28;;;5.40;;
33188;SDS011;52601;53.070;10.600;2022-11-20T01:05:22;8.98;;;6.05;;
33188;SDS011;52601;53.070;10.600;2022-11-20T01:08:08;8.30;;;5.70;;
33188;SDS011;52601;53.070;10.600;2022-11-20T01:10:53;8.95;;;5.60;;
33188;SDS011;52601;53.070;10.600;2022-11-20T01:13:44;7.60;;;5.47;;
33188;SDS011;52601;53.070;10.600;2022-11-20T01:16:32;8.00;;;5.57;;
33188;SDS011;52601;53.070;10.600;2022-11-20T01:19:21;7.28;;;5.30;;
33188;SDS011;52601;53.070;10.600;2022-11-20T01:22:08;9.15;;;5.32;;
33188;SDS011;52601;53.070;10.600;2022-11-20T01:24:54;7.20;;;5.15;;
33188;SDS011;52601;53.070;10.600;2022-11-20T01:27:40;8.30;;;5.67;;
33188;SDS011;52601;53.070;10.600;2022-11-20T01:30:25;7.30;;;5.15;;
33188;SDS011;52601;53.070;10.600;2022-11-20T01:33:11;7.32;;;5.38;;
33188;SDS011;52601;53.070;10.600;2022-11-20T01:36:03;7.63;;;5.70;;
33188;SDS011;52601;53.070;10.600;2022-11-20T01:38:53;8.18;;;5.45;;
33188;SDS011;52601;53.070;10.600;2022-11-20T01:41:40;8.98;;;5.95;;
33188;SDS011;52601;53.070;10.600;2022-11-20T01:44:55;7.10;;;5.47;;
33188;SDS011;52601;53.070;10.600;2022-11-20T01:47:44;8.70;;;5.70;;
33188;SDS011;52601;53.070;10.600;2022-11-20T01:50:31;7.57;;;5.47;;
33188;SDS011;52601;53.070;10.600;2022-11-20T01:53:20;8.57;;;5.72;;
33188;SDS011;52601;53.070;10.600;2022-11-20T01:56:09;7.35;;;5.75;;
33188;SDS011;52601;53.070;10.600;2022-11-20T01:58:56;8.38;;;5.70;;
33188;SDS011;52601;53.070;10.600;2022-11-20T02:01:47;8.88;;;5.20;;
33188;SDS011;52601;53.070;10.600;2022-11-20T02:04:32;8.32;;;5.28;;
33188;SDS011;52601;53.070;10.600;2022-11-20T02:07:18;7.32;;;5.60;;
33188;SDS011;52601;53.070;10.600;2022-11-20T02:10:05;7.95;;;5.88;;
33188;SDS011;52601;53.070;10.600;2022-11-20T02:12:51;7.93;;;5.82;;
33188;SDS011;52601;53.070;10.600;2022-11-20T02:15:55;6.72;;;5.28;;
33188;SDS011;52601;53.070;10.600;2022-11-20T02:18:41;8.05;;;5.45;;
33188;SDS011;52601;53.070;10.600;2022-11-20T02:25:00;7.32;;;5.30;;
33188;SDS011;52601;53.070;10.600;2022-11-20T02:27:48;7.95;;;5.03;;
33188;SDS011;52601;53.070;10.600;2022-11-20T02:30:34;8.15;;;5.22;;
33188;SDS011;52601;53.070;10.600;2022-11-20T02:33:20;5.63;;;4.45;;
33188;SDS011;52601;53.070;10.600;2022-11-20T02:36:07;6.55;;;4.68;;
33188;SDS011;52601;53.070;10.600;2022-11-20T02:38:56;6.22;;;4.85;;
33188;SDS011;52601;53.070;10.600;2022-11-20T02:41:41;6.28;;;4.75;;
33188;SDS011;52601;53.070;10.600;2022-11-20T02:44:27;7.30;;;5.10;;
33188;SDS011;52601;53.070;10.600;2022-11-20T02:47:13;7.50;;;5.32;;
33188;SDS011;52601;53.070;10.600;2022-11-20T02:49:58;7.88;;;5.00;;
33188;SDS011;52601;53.070;10.600;2022-11-20T02:52:44;8.77;;;5.00;;
33188;SDS011;52601;53.070;10.600;2022-11-20T02:55:30;7.32;;;5.25;;
33188;SDS011;52601;53.070;10.600;2022-11-20T02:58:15;7.55;;;5.20;;
33188;SDS011;52601;53.070;10.600;2022-11-20T03:01:01;7.30;;;5.40;;
33188;SDS011;52601;53.070;10.600;2022-11-20T03:03:46;8.00;;;5.72;;
33188;SDS011;52601;53.070;10.600;2022-11-20T03:06:33;10.10;;;6.43;;
33188;SDS011;52601;53.070;10.600;2022-11-20T03:09:19;10.80;;;6.30;;
33188;SDS011;52601;53.070;10.600;2022-11-20T03:12:05;7.82;;;5.82;;
33188;SDS011;52601;53.070;10.600;2022-11-20T03:14:51;8.98;;;6.53;;
33188;SDS011;52601;53.070;10.600;2022-11-20T03:17:37;7.78;;;6.20;;
33188;SDS011;52601;53.070;10.600;2022-11-20T03:20:23;8.35;;;5.47;;
33188;SDS011;52601;53.070;10.600;2022-11-20T03:23:09;9.43;;;6.50;;
33188;SDS011;52601;53.070;10.600;2022-11-20T03:25:54;7.55;;;5.25;;
33188;SDS011;52601;53.070;10.600;2022-11-20T03:28:40;6.82;;;4.78;;
33188;SDS011;52601;53.070;10.600;2022-11-20T03:31:31;6.82;;;4.70;;
33188;SDS011;52601;53.070;10.600;2022-11-20T03:34:18;7.47;;;4.80;;
33188;SDS011;52601;53.070;10.600;2022-11-20T03:37:03;6.53;;;4.50;;
33188;SDS011;52601;53.070;10.600;2022-11-20T03:39:49;5.13;;;4.00;;
33188;SDS011;52601;53.070;10.600;2022-11-20T03:42:34;7.35;;;5.25;;
33188;SDS011;52601;53.070;10.600;2022-11-20T03:45:31;6.90;;;5.10;;
33188;SDS011;52601;53.070;10.600;2022-11-20T03:48:17;6.13;;;4.20;;
33188;SDS011;52601;53.070;10.600;2022-11-20T03:51:09;7.55;;;4.93;;
33188;SDS011;52601;53.070;10.600;2022-11-20T03:54:01;6.10;;;4.65;;
33188;SDS011;52601;53.070;10.600;2022-11-20T03:56:48;7.10;;;4.88;;
33188;SDS011;52601;53.070;10.600;2022-11-20T03:59:34;5.68;;;4.28;;
33188;SDS011;52601;53.070;10.600;2022-11-20T04:02:19;8.77;;;4.63;;
33188;SDS011;52601;53.070;10.600;2022-11-20T04:05:05;5.80;;;4.28;;
33188;SDS011;52601;53.070;10.600;2022-11-20T04:07:51;6.13;;;4.32;;
33188;SDS011;52601;53.070;10.600;2022-11-20T04:10:36;5.45;;;3.80;;
33188;SDS011;52601;53.070;10.600;2022-11-20T04:13:22;7.85;;;4.50;;
33188;SDS011;52601;53.070;10.600;2022-11-20T04:16:08;7.43;;;4.28;;
33188;SDS011;52601;53.070;10.600;2022-11-20T04:18:55;6.07;;;3.70;;
33188;SDS011;52601;53.070;10.600;2022-11-20T04:21:43;6.15;;;4.07;;
33188;SDS011;52601;53.070;10.600;2022-11-20T04:24:28;5.93;;;3.67;;
33188;SDS011;52601;53.070;10.600;2022-11-20T04:27:14;5.15;;;4.07;;
33188;SDS011;52601;53.070;10.600;2022-11-20T04:29:59;7.55;;;3.88;;
33188;SDS011;52601;53.070;10.600;2022-11-20T04:32:45;5.88;;;4.15;;
33188;SDS011;52601;53.070;10.600;2022-11-20T04:35:33;4.70;;;2.97;;
33188;SDS011;52601;53.070;10.600;2022-11-20T04:38:19;4.75;;;3.80;;
33188;SDS011;52601;53.070;10.600;2022-11-20T04:41:05;5.72;;;3.65;;
33188;SDS011;52601;53.070;10.600;2022-11-20T04:43:52;5.68;;;4.15;;
33188;SDS011;52601;53.070;10.600;2022-11-20T04:46:44;5.30;;;3.58;;
33188;SDS011;52601;53.070;10.600;2022-11-20T04:49:29;6.17;;;3.87;;
33188;SDS011;52601;53.070;10.600;2022-11-20T04:52:16;4.67;;;3.13;;
33188;SDS011;52601;53.070;10.600;2022-11-20T04:55:02;6.47;;;3.45;;
33188;SDS011;52601;53.070;10.600;2022-11-20T04:57:49;5.73;;;3.73;;
33188;SDS011;52601;53.070;10.600;2022-11-20T05:00:36;5.50;;;4.10;;
33188;SDS011;52601;53.070;10.600;2022-11-20T05:03:21;5.72;;;3.75;;
33188;SDS011;52601;53.070;10.600;2022-11-20T05:06:08;6.63;;;4.10;;
33188;SDS011;52601;53.070;10.600;2022-11-20T05:08:54;6.82;;;4.22;;
33188;SDS011;52601;53.070;10.600;2022-11-20T05:11:40;6.25;;;4.00;;
33188;SDS011;52601;53.070;10.600;2022-11-20T05:14:25;6.53;;;4.07;;
33188;SDS011;52601;53.070;10.600;2022-11-20T05:17:11;6.38;;;4.50;;
33188;SDS011;52601;53.070;10.600;2022-11-20T05:19:57;7.43;;;4.50;;
33188;SDS011;52601;53.070;10.600;2022-11-20T05:22:43;6.88;;;4.88;;
33188;SDS011;52601;53.070;10.600;2022-11-20T05:25:29;8.05;;;5.28;;
33188;SDS011;52601;53.070;10.600;2022-11-20T05:28:14;7.97;;;5.43;;
33188;SDS011;52601;53.070;10.600;2022-11-20T05:31:07;8.80;;;4.90;;
33188;SDS011;52601;53.070;10.600;2022-11-20T05:33:54;7.70;;;4.80;;
33188;SDS011;52601;53.070;10.600;2022-11-20T05:36:41;8.23;;;4.95;;
33188;SDS011;52601;53.070;10.600;2022-11-20T05:39:27;9.30;;;6.13;;
33188;SDS011;52601;53.070;10.600;2022-11-20T05:42:12;10.57;;;5.90;;
33188;SDS011;52601;53.070;10.600;2022-11-20T05:45:15;8.38;;;6.03;;
33188;SDS011;52601;53.070;10.600;2022-11-20T05:48:01;7.07;;;5.47;;
33188;SDS011;52601;53.070;10.600;2022-11-20T05:50:47;9.00;;;5.80;;
33188;SDS011;52601;53.070;10.600;2022-11-20T05:53:33;13.27;;;6.68;;
33188;SDS011;52601;53.070;10.600;2022-11-20T05:56:20;9.38;;;6.20;;
33188;SDS011;52601;53.070;10.600;2022-11-20T05:59:07;9.97;;;6.30;;
33188;SDS011;52601;53.070;10.600;2022-11-20T06:01:52;9.82;;;6.10;;
33188;SDS011;52601;53.070;10.600;2022-11-20T06:04:38;9.00;;;6.13;;
33188;SDS011;52601;53.070;10.600;2022-11-20T06:07:23;8.93;;;5.90;;
33188;SDS011;52601;53.070;10.600;2022-11-20T06:10:09;8.52;;;5.68;;
33188;SDS011;52601;53.070;10.600;2022-11-20T06:12:57;8.98;;;6.20;;
33188;SDS011;52601;53.070;10.600;2022-11-20T06:15:47;11.55;;;6.78;;
33188;SDS011;52601;53.070;10.600;2022-11-20T06:18:34;10.30;;;6.60;;
33188;SDS011;52601;53.070;10.600;2022-11-20T06:21:20;9.77;;;6.53;;
33188;SDS011;52601;53.070;10.600;2022-11-20T06:24:09;9.98;;;6.40;;
33188;SDS011;52601;53.070;10.600;2022-11-20T06:26:55;10.57;;;6.47;;
33188;SDS011;52601;53.070;10.600;2022-11-20T06:29:41;10.48;;;6.88;;
33188;SDS011;52601;53.070;10.600;2022-11-20T06:32:26;10.57;;;6.82;;
33188;SDS011;52601;53.070;10.600;2022-11-20T06:35:12;10.30;;;6.63;;
33188;SDS011;52601;53.070;10.600;2022-11-20T06:37:57;10.35;;;6.47;;
33188;SDS011;52601;53.070;10.600;2022-11-20T06:40:43;11.30;;;6.60;;
33188;SDS011;52601;53.070;10.600;2022-11-20T06:43:29;13.55;;;7.45;;
33188;SDS011;52601;53.070;10.600;2022-11-20T06:46:15;12.30;;;7.47;;
33188;SDS011;52601;53.070;10.600;2022-11-20T06:49:04;10.85;;;7.18;;
33188;SDS011;52601;53.070;10.600;2022-11-20T06:51:50;12.95;;;7.63;;
33188;SDS011;52601;53.070;10.600;2022-11-20T06:54:35;11.90;;;7.28;;
33188;SDS011;52601;53.070;10.600;2022-11-20T06:57:21;12.33;;;7.70;;
33188;SDS011;52601;53.070;10.600;2022-11-20T07:00:06;12.27;;;6.93;;
33188;SDS011;52601;53.070;10.600;2022-11-20T07:02:52;12.10;;;7.87;;
33188;SDS011;52601;53.070;10.600;2022-11-20T07:05:37;11.02;;;7.65;;
33188;SDS011;52601;53.070;10.600;2022-11-20T07:08:24;12.50;;;7.77;;
33188;SDS011;52601;53.070;10.600;2022-11-20T07:11:12;12.75;;;7.88;;
33188;SDS011;52601;53.070;10.600;2022-11-20T07:13:58;14.90;;;8.32;;
33188;SDS011;52601;53.070;10.600;2022-11-20T07:16:44;14.27;;;8.25;;
33188;SDS011;52601;53.070;10.600;2022-11-20T07:19:29;14.35;;;8.52;;
33188;SDS011;52601;53.070;10.600;2022-11-20T07:22:15;12.93;;;8.52;;
33188;SDS011;52601;53.070;10.600;2022-11-20T07:25:01;14.23;;;8.38;;
33188;SDS011;52601;53.070;10.600;2022-11-20T07:27:47;13.70;;;8.57;;
33188;SDS011;52601;53.070;10.600;2022-11-20T07:30:32;13.77;;;7.57;;
33188;SDS011;52601;53.070;10.600;2022-11-20T07:33:18;15.60;;;10.67;;
33188;SDS011;52601;53.070;10.600;2022-11-20T07:36:04;17.33;;;10.90;;
33188;SDS011;52601;53.070;10.600;2022-11-20T07:38:50;19.40;;;11.88;;
33188;SDS011;52601;53.070;10.600;2022-11-20T07:41:35;18.65;;;11.20;;
33188;SDS011;52601;53.070;10.600;2022-11-20T07:44:21;18.70;;;11.75;;
33188;SDS011;52601;53.070;10.600;2022-11-20T07:47:06;17.55;;;11.13;;
33188;SDS011;52601;53.070;10.600;2022-11-20T07:49:51;18.35;;;11.85;;
33188;SDS011;52601;53.070;10.600;2022-11-20T07:52:37;16.97;;;11.50;;
33188;SDS011;52601;53.070;10.600;2022-11-20T07:55:23;15.70;;;10.80;;
33188;SDS011;52601;53.070;10.600;2022-11-20T07:58:08;16.33;;;10.10;;
33188;SDS011;52601;53.070;10.600;2022-11-20T08:00:53;17.05;;;10.70;;
33188;SDS011;52601;53.070;10.600;2022-11-20T08:03:39;17.43;;;10.53;;
33188;SDS011;52601;53.070;10.600;2022-11-20T08:06:24;17.52;;;10.73;;
33188;SDS011;52601;53.070;10.600;2022-11-20T08:09:10;16.38;;;10.25;;
33188;SDS011;52601;53.070;10.600;2022-11-20T08:11:55;16.70;;;10.27;;
33188;SDS011;52601;53.070;10.600;2022-11-20T08:15:00;15.00;;;9.53;;
33188;SDS011;52601;53.070;10.600;2022-11-20T08:17:45;14.65;;;9.57;;
33188;SDS011;52601;53.070;10.600;2022-11-20T08:20:51;14.02;;;8.82;;
33188;SDS011;52601;53.070;10.600;2022-11-20T08:23:36;11.60;;;8.17;;
33188;SDS011;52601;53.070;10.600;2022-11-20T08:26:22;12.75;;;7.95;;
33188;SDS011;52601;53.070;10.600;2022-11-20T08:29:08;12.83;;;8.60;;
33188;SDS011;52601;53.070;10.600;2022-11-20T08:31:53;22.75;;;19.45;;
33188;SDS011;52601;53.070;10.600;2022-11-20T08:34:39;17.55;;;12.57;;
33188;SDS011;52601;53.070;10.600;2022-11-20T08:37:24;17.27;;;11.70;;
33188;SDS011;52601;53.070;10.600;2022-11-20T08:40:10;17.13;;;12.48;;
33188;SDS011;52601;53.070;10.600;2022-11-20T08:43:03;16.75;;;12.20;;
33188;SDS011;52601;53.070;10.600;2022-11-20T08:45:49;17.02;;;11.80;;
33188;SDS011;52601;53.070;10.600;2022-11-20T08:48:35;18.52;;;13.02;;
33188;SDS011;52601;53.070;10.600;2022-11-20T08:51:20;17.38;;;11.95;;
33188;SDS011;52601;53.070;10.600;2022-11-20T08:54:06;16.52;;;12.43;;
33188;SDS011;52601;53.070;10.600;2022-11-20T08:56:51;18.67;;;14.10;;
33188;SDS011;52601;53.070;10.600;2022-11-20T08:59:37;17.23;;;11.98;;
33188;SDS011;52601;53.070;10.600;2022-11-20T09:02:43;15.38;;;11.38;;
33188;SDS011;52601;53.070;10.600;2022-11-20T09:05:28;16.70;;;10.88;;
33188;SDS011;52601;53.070;10.600;2022-11-20T09:08:14;14.48;;;10.60;;
33188;SDS011;52601;53.070;10.600;2022-11-20T09:10:59;15.35;;;10.68;;
33188;SDS011;52601;53.070;10.600;2022-11-20T09:13:45;16.10;;;11.15;;
33188;SDS011;52601;53.070;10.600;2022-11-20T09:16:30;16.48;;;10.80;;
33188;SDS011;52601;53.070;10.600;2022-11-20T09:19:16;13.88;;;9.90;;
33188;SDS011;52601;53.070;10.600;2022-11-20T09:22:21;15.60;;;10.98;;
33188;SDS011;52601;53.070;10.600;2022-11-20T09:25:07;13.80;;;8.75;;
33188;SDS011;52601;53.070;10.600;2022-11-20T09:27:56;14.15;;;9.15;;
33188;SDS011;52601;53.070;10.600;2022-11-20T09:30:43;10.88;;;7.38;;
33188;SDS011;52601;53.070;10.600;2022-11-20T09:33:28;12.88;;;9.57;;
33188;SDS011;52601;53.070;10.600;2022-11-20T09:36:14;9.65;;;6.80;;
33188;SDS011;52601;53.070;10.600;2022-11-20T09:39:01;16.23;;;13.05;;
33188;SDS011;52601;53.070;10.600;2022-11-20T09:44:54;10.63;;;7.35;;
33188;SDS011;52601;53.070;10.600;2022-11-20T09:57:12;11.95;;;10.70;;
33188;SDS011;52601;53.070;10.600;2022-11-20T10:00:03;11.47;;;10.07;;
33188;SDS011;52601;53.070;10.600;2022-11-20T10:02:55;12.20;;;10.80;;
33188;SDS011;52601;53.070;10.600;2022-11-20T10:05:53;12.45;;;10.57;;
33188;SDS011;52601;53.070;10.600;2022-11-20T10:08:41;11.82;;;8.80;;
33188;SDS011;52601;53.070;10.600;2022-11-20T10:11:45;10.98;;;9.38;;
33188;SDS011;52601;53.070;10.600;2022-11-20T10:18:16;6.70;;;3.65;;
33188;SDS011;52601;53.070;10.600;2022-11-20T10:24:42;5.35;;;2.95;;
33188;SDS011;52601;53.070;10.600;2022-11-20T10:27:36;4.82;;;2.72;;
33188;SDS011;52601;53.070;10.600;2022-11-20T10:30:45;4.65;;;3.13;;
33188;SDS011;52601;53.070;10.600;2022-11-20T10:33:42;4.05;;;2.97;;
33188;SDS011;52601;53.070;10.600;2022-11-20T10:37:02;5.55;;;3.30;;
33188;SDS011;52601;53.070;10.600;2022-11-20T10:46:18;6.78;;;3.42;;
33188;SDS011;52601;53.070;10.600;2022-11-20T10:49:15;4.80;;;3.28;;
33188;SDS011;52601;53.070;10.600;2022-11-20T11:01:55;4.60;;;2.80;;
33188;SDS011;52601;53.070;10.600;2022-11-20T11:04:45;4.20;;;2.80;;
33188;SDS011;52601;53.070;10.600;2022-11-20T11:07:38;4.03;;;2.93;;
33188;SDS011;52601;53.070;10.600;2022-11-20T11:10:39;2.90;;;2.15;;
33188;SDS011;52601;53.070;10.600;2022-11-20T11:16:00;4.15;;;2.50;;
33188;SDS011;52601;53.070;10.600;2022-11-20T11:18:46;4.22;;;2.83;;
33188;SDS011;52601;53.070;10.600;2022-11-20T11:21:32;2.88;;;2.10;;
33188;SDS011;52601;53.070;10.600;2022-11-20T11:24:23;3.10;;;2.17;;
33188;SDS011;52601;53.070;10.600;2022-11-20T11:27:27;3.67;;;2.30;;
33188;SDS011;52601;53.070;10.600;2022-11-20T11:30:14;4.67;;;2.50;;
33188;SDS011;52601;53.070;10.600;2022-11-20T11:33:03;6.75;;;1.95;;
33188;SDS011;52601;53.070;10.600;2022-11-20T11:36:17;3.42;;;2.15;;
33188;SDS011;52601;53.070;10.600;2022-11-20T11:39:16;3.15;;;2.10;;
33188;SDS011;52601;53.070;10.600;2022-11-20T11:42:07;4.07;;;2.35;;
33188;SDS011;52601;53.070;10.600;2022-11-20T11:44:59;2.78;;;2.17;;
33188;SDS011;52601;53.070;10.600;2022-11-20T11:47:52;3.15;;;1.90;;
33188;SDS011;52601;53.070;10.600;2022-11-20T11:50:47;3.58;;;2.13;;
33188;SDS011;52601;53.070;10.600;2022-11-20T11:53:34;3.28;;;2.28;;
33188;SDS011;52601;53.070;10.600;2022-11-20T11:56:26;2.55;;;1.90;;
33188;SDS011;52601;53.070;10.600;2022-11-20T11:59:17;3.50;;;2.10;;
33188;SDS011;52601;53.070;10.600;2022-11-20T12:02:29;3.70;;;2.38;;
33188;SDS011;52601;53.070;10.600;2022-11-20T12:08:36;4.50;;;2.33;;
33188;SDS011;52601;53.070;10.600;2022-11-20T12:11:43;2.95;;;2.03;;
33188;SDS011;52601;53.070;10.600;2022-11-20T12:14:38;3.67;;;2.20;;
33188;SDS011;52601;53.070;10.600;2022-11-20T12:17:28;2.78;;;2.00;;
33188;SDS011;52601;53.070;10.600;2022-11-20T12:20:14;2.97;;;2.07;;
33188;SDS011;52601;53.070;10.600;2022-11-20T12:33:09;2.00;;;1.70;;
33188;SDS011;52601;53.070;10.600;2022-11-20T12:36:04;2.15;;;1.73;;
33188;SDS011;52601;53.070;10.600;2022-11-20T12:39:17;2.67;;;1.85;;
33188;SDS011;52601;53.070;10.600;2022-11-20T12:51:51;3.53;;;2.08;;
33188;SDS011;52601;53.070;10.600;2022-11-20T12:55:21;3.67;;;2.00;;
33188;SDS011;52601;53.070;10.600;2022-11-20T13:07:36;2.08;;;1.42;;
33188;SDS011;52601;53.070;10.600;2022-11-20T13:10:38;2.47;;;1.65;;
33188;SDS011;52601;53.070;10.600;2022-11-20T13:19:37;1.70;;;1.27;;
33188;SDS011;52601;53.070;10.600;2022-11-20T13:22:28;2.70;;;1.80;;
33188;SDS011;52601;53.070;10.600;2022-11-20T13:31:09;1.77;;;1.30;;
33188;SDS011;52601;53.070;10.600;2022-11-20T13:34:29;2.28;;;1.70;;
33188;SDS011;52601;53.070;10.600;2022-11-20T13:37:24;2.92;;;1.67;;
33188;SDS011;52601;53.070;10.600;2022-11-20T13:40:21;2.65;;;1.60;;
33188;SDS011;52601;53.070;10.600;2022-11-20T13:46:03;3.55;;;1.92;;
33188;SDS011;52601;53.070;10.600;2022-11-20T13:48:51;3.97;;;2.17;;
33188;SDS011;52601;53.070;10.600;2022-11-20T13:57:55;3.00;;;1.95;;
33188;SDS011;52601;53.070;10.600;2022-11-20T14:00:57;3.75;;;1.90;;
33188;SDS011;52601;53.070;10.600;2022-11-20T14:03:46;3.10;;;2.00;;
33188;SDS011;52601;53.070;10.600;2022-11-20T14:06:53;2.35;;;1.63;;
33188;SDS011;52601;53.070;10.600;2022-11-20T14:09:48;2.97;;;1.95;;
33188;SDS011;52601;53.070;10.600;2022-11-20T14:12:39;2.93;;;1.70;;
33188;SDS011;52601;53.070;10.600;2022-11-20T14:18:13;3.38;;;1.70;;
33188;SDS011;52601;53.070;10.600;2022-11-20T14:21:01;2.60;;;1.70;;
33188;SDS011;52601;53.070;10.600;2022-11-20T14:23:49;2.38;;;1.45;;
33188;SDS011;52601;53.070;10.600;2022-11-20T14:26:41;1.77;;;1.52;;
33188;SDS011;52601;53.070;10.600;2022-11-20T14:29:33;2.05;;;1.42;;
33188;SDS011;52601;53.070;10.600;2022-11-20T14:32:22;1.93;;;1.20;;
33188;SDS011;52601;53.070;10.600;2022-11-20T14:35:21;2.20;;;1.50;;
33188;SDS011;52601;53.070;10.600;2022-11-20T14:38:11;2.53;;;1.65;;
33188;SDS011;52601;53.070;10.600;2022-11-20T14:41:05;2.63;;;1.73;;
33188;SDS011;52601;53.070;10.600;2022-11-20T14:43:54;2.63;;;1.58;;
33188;SDS011;52601;53.070;10.600;2022-11-20T14:46:42;3.17;;;1.40;;
33188;SDS011;52601;53.070;10.600;2022-11-20T14:49:30;2.17;;;1.55;;
33188;SDS011;52601;53.070;10.600;2022-11-20T14:52:18;2.17;;;1.58;;
33188;SDS011;52601;53.070;10.600;2022-11-20T14:55:07;2.13;;;1.50;;
33188;SDS011;52601;53.070;10.600;2022-11-20T14:57:54;3.55;;;1.80;;
33188;SDS011;52601;53.070;10.600;2022-11-20T15:00:42;5.47;;;3.40;;
33188;SDS011;52601;53.070;10.600;2022-11-20T15:03:42;4.90;;;3.10;;
33188;SDS011;52601;53.070;10.600;2022-11-20T15:06:28;4.95;;;2.95;;
33188;SDS011;52601;53.070;10.600;2022-11-20T15:09:14;5.73;;;3.17;;
33188;SDS011;52601;53.070;10.600;2022-11-20T15:12:01;5.50;;;3.23;;
33188;SDS011;52601;53.070;10.600;2022-11-20T15:14:48;5.88;;;3.63;;
33188;SDS011;52601;53.070;10.600;2022-11-20T15:17:34;5.53;;;3.40;;
33188;SDS011;52601;53.070;10.600;2022-11-20T15:20:25;4.82;;;3.10;;
33188;SDS011;52601;53.070;10.600;2022-11-20T15:23:17;5.82;;;3.45;;
33188;SDS011;52601;53.070;10.600;2022-11-20T15:26:04;5.47;;;2.92;;
33188;SDS011;52601;53.070;10.600;2022-11-20T15:28:52;4.88;;;3.10;;
33188;SDS011;52601;53.070;10.600;2022-11-20T15:31:39;5.65;;;3.33;;
33188;SDS011;52601;53.070;10.600;2022-11-20T15:34:28;4.82;;;3.22;;
33188;SDS011;52601;53.070;10.600;2022-11-20T15:37:13;5.63;;;3.20;;
33188;SDS011;52601;53.070;10.600;2022-11-20T15:40:01;5.05;;;3.40;;
33188;SDS011;52601;53.070;10.600;2022-11-20T15:42:47;5.28;;;3.67;;
33188;SDS011;52601;53.070;10.600;2022-11-20T15:45:56;5.10;;;3.17;;
33188;SDS011;52601;53.070;10.600;2022-11-20T15:49:04;4.55;;;2.95;;
33188;SDS011;52601;53.070;10.600;2022-11-20T15:51:50;4.53;;;3.20;;
33188;SDS011;52601;53.070;10.600;2022-11-20T15:54:38;6.00;;;3.60;;
33188;SDS011;52601;53.070;10.600;2022-11-20T15:57:24;4.38;;;3.20;;
33188;SDS011;52601;53.070;10.600;2022-11-20T16:00:14;5.35;;;3.58;;
33188;SDS011;52601;53.070;10.600;2022-11-20T16:03:09;7.07;;;4.13;;
33188;SDS011;52601;53.070;10.600;2022-11-20T16:05:56;4.65;;;3.17;;
33188;SDS011;52601;53.070;10.600;2022-11-20T16:08:42;5.10;;;3.65;;
33188;SDS011;52601;53.070;10.600;2022-11-20T16:11:28;4.85;;;3.38;;
33188;SDS011;52601;53.070;10.600;2022-11-20T16:14:14;5.60;;;3.75;;
33188;SDS011;52601;53.070;10.600;2022-11-20T16:17:18;5.45;;;3.67;;
33188;SDS011;52601;53.070;10.600;2022-11-20T16:20:24;8.05;;;4.60;;
33188;SDS011;52601;53.070;10.600;2022-11-20T16:23:11;7.00;;;4.40;;
33188;SDS011;52601;53.070;10.600;2022-11-20T16:25:58;7.28;;;4.75;;
33188;SDS011;52601;53.070;10.600;2022-11-20T16:28:44;7.65;;;5.25;;
33188;SDS011;52601;53.070;10.600;2022-11-20T16:31:32;8.73;;;5.43;;
33188;SDS011;52601;53.070;10.600;2022-11-20T16:34:19;7.95;;;5.43;;
33188;SDS011;52601;53.070;10.600;2022-11-20T16:37:05;8.93;;;5.45;;
33188;SDS011;52601;53.070;10.600;2022-11-20T16:39:51;7.78;;;5.43;;
33188;SDS011;52601;53.070;10.600;2022-11-20T16:42:37;9.68;;;5.65;;
33188;SDS011;52601;53.070;10.600;2022-11-20T16:45:23;8.73;;;5.40;;
33188;SDS011;52601;53.070;10.600;2022-11-20T16:48:16;8.10;;;5.65;;
33188;SDS011;52601;53.070;10.600;2022-11-20T16:51:02;8.50;;;5.15;;
33188;SDS011;52601;53.070;10.600;2022-11-20T16:53:49;8.63;;;5.43;;
33188;SDS011;52601;53.070;10.600;2022-11-20T16:56:35;9.57;;;5.40;;
33188;SDS011;52601;53.070;10.600;2022-11-20T16:59:23;9.35;;;5.75;;
33188;SDS011;52601;53.070;10.600;2022-11-20T17:02:10;10.25;;;5.55;;
33188;SDS011;52601;53.070;10.600;2022-11-20T17:04:56;7.70;;;5.50;;
33188;SDS011;52601;53.070;10.600;2022-11-20T17:07:44;8.50;;;5.78;;
33188;SDS011;52601;53.070;10.600;2022-11-20T17:10:30;8.33;;;5.33;;
33188;SDS011;52601;53.070;10.600;2022-11-20T17:13:16;8.50;;;6.07;;
33188;SDS011;52601;53.070;10.600;2022-11-20T17:16:02;10.98;;;6.65;;
33188;SDS011;52601;53.070;10.600;2022-11-20T17:18:49;9.48;;;6.15;;
33188;SDS011;52601;53.070;10.600;2022-11-20T17:21:35;10.55;;;6.47;;
33188;SDS011;52601;53.070;10.600;2022-11-20T17:24:22;9.45;;;6.15;;
33188;SDS011;52601;53.070;10.600;2022-11-20T17:27:13;11.38;;;6.85;;
33188;SDS011;52601;53.070;10.600;2022-11-20T17:29:58;9.75;;;6.40;;
33188;SDS011;52601;53.070;10.600;2022-11-20T17:32:44;8.93;;;6.65;;
33188;SDS011;52601;53.070;10.600;2022-11-20T17:35:31;8.85;;;6.20;;
33188;SDS011;52601;53.070;10.600;2022-11-20T17:38:16;9.75;;;6.38;;
33188;SDS011;52601;53.070;10.600;2022-11-20T17:43:51;8.98;;;6.28;;
33188;SDS011;52601;53.070;10.600;2022-11-20T17:46:38;9.13;;;6.55;;
33188;SDS011;52601;53.070;10.600;2022-11-20T17:49:23;9.77;;;6.80;;
33188;SDS011;52601;53.070;10.600;2022-11-20T17:52:08;9.15;;;6.60;;
33188;SDS011;52601;53.070;10.600;2022-11-20T17:54:54;10.37;;;7.53;;
33188;SDS011;52601;53.070;10.600;2022-11-20T17:57:41;10.93;;;7.47;;
33188;SDS011;52601;53.070;10.600;2022-11-20T18:00:42;12.73;;;8.53;;
33188;SDS011;52601;53.070;10.600;2022-11-20T18:03:27;9.57;;;7.20;;
33188;SDS011;52601;53.070;10.600;2022-11-20T18:06:16;9.50;;;7.30;;
33188;SDS011;52601;53.070;10.600;2022-11-20T18:09:04;18.85;;;12.85;;
33188;SDS011;52601;53.070;10.600;2022-11-20T18:11:51;14.57;;;9.77;;
33188;SDS011;52601;53.070;10.600;2022-11-20T18:14:36;13.43;;;9.87;;
33188;SDS011;52601;53.070;10.600;2022-11-20T18:17:22;12.82;;;9.73;;
33188;SDS011;52601;53.070;10.600;2022-11-20T18:20:07;17.60;;;12.75;;